Paris, TN

2:24 PM CST on February 14, 2016 (GMT -0600)
Highway 69 N | | Change Station
CLOSE
Current Station
Personal Weather Station
Location: Paris, TN
Elevation: 495 ft
Nearby Weather Stations
Active Advisory: Winter Weather Advisory

Elev 495 ft 36.31 °N, 88.34 °W | Updated 11 minutes ago

Overcast
Overcast
31.7 °F
Feels Like 32 °F
N
0.0
Wind Variable Wind from SSE
Gusts 1.0 mph

Today
High -- | Low -- °F
--% Chance of Precip.
Yesterday
High -- | Low -- °F
Precip. -- in
Pressure 30.05 in
Visibility 6.0 miles
Clouds Overcast 3500 ft
Windchill 32 °F
Dew Point 25 °F
Humidity 77%
Rainfall 0.00 in
Snow Depth Not available.
6:42 AM 5:32 PM
Waxing Crescent, 45% visible
METAR KCEY 141935Z AUTO 13008G15KT 6SM OVC035 M03/M04 A3005 RMK AO1
Pressure 30.05 in
Visibility 6.0 miles
Clouds Overcast 3500 ft
Windchill 32 °F
Dew Point 25 °F
Humidity 77%
Rainfall 0.00 in
Snow Depth Not available.
6:42 AM 5:32 PM
Waxing Crescent, 45% visible
METAR KCEY 141935Z AUTO 13008G15KT 6SM OVC035 M03/M04 A3005 RMK AO1

10-Day Weather Forecast

Almanac

Astronomy

Feb. 14, 2016 Rise Set
Actual Time
Civil Twilight
Nautical Twilight
Astronomical Twilight
Moon
Length of Visible Light
Length of Day
Tomorrow will be .
, % of the Moon is Illuminated

Today's Extremes

State Highs State Lows

Community

WunderPhotos

Upload Photos

1,892,885 photos uploaded!

WunderBlog® & News

Nearby

Air Quality

  Air Quality AQ Index Pollutant
Not available.

Snow Depth

Station Depth Elevation

Earthquake Activity

City Distance Mag. Time & Date
Minimum magnitude displayed is 2.5.

Coastal Water Temperatures

Place Temperature

Stations

Nearby Weather Stations

Station Location Temp. Windchill Dew Point Humidity Wind Precip. Elev Updated Type
                   

Watches & Warnings

Winter Weather Advisory
Issued: 10:22 AM CST Feb. 14, 2016 – National Weather Service

... Winter Weather Advisory remains in effect until 6 PM CST this
evening...

* snow/sleet/ice accumulations... less than 0.25 inch of sleet
accumulation is expected with less than 0.10 inch of ice
accumulation possible.

* Timing... 6 am CST today through 6 PM CST this evening.

* Impacts... ice on roadways could create hazardous travel in the
advisory area. Bridges and overpasses as well as other
elevated roadways will be prone to ice and could become slick.

Precautionary/preparedness actions...

A Winter Weather Advisory means that periods of snow... sleet... or
freezing rain will cause travel difficulties. Be prepared for
slippery roads... and use caution while driving.



Zdm